createdAt,value
2022-11-04T00:02:06.272Z,99466.84
2022-11-04T00:04:33.146Z,99456.06
2022-11-04T00:06:59.889Z,99454.19
2022-11-04T00:09:28.802Z,99459.84
2022-11-04T00:12:19.385Z,99451.78
2022-11-04T00:14:46.358Z,99445.84
2022-11-04T00:17:23.503Z,99447.72
2022-11-04T00:20:18.868Z,99434.25
2022-11-04T00:23:08.976Z,99441.81
2022-11-04T00:25:56.657Z,99436.69
2022-11-04T00:28:44.567Z,99432.66
2022-11-04T00:31:29.645Z,99447.19
2022-11-04T00:33:59.008Z,99459.06
2022-11-04T00:36:26.309Z,99459.88
2022-11-04T00:38:53.351Z,99458.22
2022-11-04T00:41:30.059Z,99463.63
2022-11-04T00:44:02.017Z,99466.03
2022-11-04T00:46:30.566Z,99464.41
2022-11-04T00:48:58.150Z,99475.72
2022-11-04T00:51:25.233Z,99482.97
2022-11-04T00:53:51.892Z,99478.69
2022-11-04T00:56:18.505Z,99487.56
2022-11-04T00:58:45.416Z,99497.00
2022-11-04T01:01:19.119Z,99500.75
2022-11-04T01:03:48.446Z,99492.66
2022-11-04T01:06:15.929Z,99478.38
2022-11-04T01:08:42.588Z,99480.56
2022-11-04T01:11:10.278Z,99489.72
2022-11-04T01:13:38.012Z,99492.91
2022-11-04T01:16:07.264Z,99491.03
2022-11-04T01:18:34.258Z,99495.34
2022-11-04T01:21:06.804Z,99501.56
2022-11-04T01:23:36.517Z,99504.78
2022-11-04T01:26:11.854Z,99518.22
2022-11-04T01:28:38.562Z,99512.03
2022-11-04T01:31:07.276Z,99517.41
2022-11-04T01:33:34.552Z,99509.59
2022-11-04T01:36:01.767Z,99511.75
2022-11-04T01:38:29.411Z,99505.28
2022-11-04T01:40:56.274Z,99496.41
2022-11-04T01:43:23.866Z,99511.25
2022-11-04T01:46:01.288Z,99512.63
2022-11-04T01:48:35.091Z,99512.88
2022-11-04T01:51:01.865Z,99511.28
2022-11-04T01:53:39.743Z,99515.84
2022-11-04T01:56:12.020Z,99512.84
2022-11-04T01:58:43.905Z,99516.06
2022-11-04T02:01:11.555Z,99511.25
2022-11-04T02:03:48.910Z,99514.47
2022-11-04T02:06:18.433Z,99514.47
2022-11-04T02:08:45.896Z,99515.75
2022-11-04T02:11:32.799Z,99519.28
2022-11-04T02:14:00.439Z,99524.13
2022-11-04T02:16:40.080Z,99533.03
2022-11-04T02:19:25.208Z,99529.53
2022-11-04T02:22:10.688Z,99527.41
2022-11-04T02:25:09.120Z,99525.78
2022-11-04T02:28:08.627Z,99533.31
2022-11-04T02:31:05.089Z,99533.03
2022-11-04T02:33:46.691Z,99537.34
2022-11-04T02:36:19.735Z,99539.50
2022-11-04T02:38:55.103Z,99541.94
2022-11-04T02:41:36.587Z,99543.81
2022-11-04T02:44:14.740Z,99540.31
2022-11-04T02:46:50.540Z,99534.91
2022-11-04T02:49:23.497Z,99540.56
2022-11-04T02:51:59.463Z,99539.78
2022-11-04T02:54:33.176Z,99545.16
2022-11-04T02:57:03.434Z,99546.78
2022-11-04T02:59:45.428Z,99544.63
2022-11-04T03:02:35.628Z,99563.47
2022-11-04T03:05:05.980Z,99581.25
2022-11-04T03:07:40.359Z,99564.03
2022-11-04T03:10:16.587Z,99555.66
2022-11-04T03:12:54.007Z,99566.97
2022-11-04T03:15:26.878Z,99581.50
2022-11-04T03:18:28.914Z,99575.06
2022-11-04T03:20:59.783Z,99582.56
2022-11-04T03:23:26.432Z,99595.47
2022-11-04T03:26:00.735Z,99596.25
2022-11-04T03:28:38.834Z,99592.47
2022-11-04T03:31:08.323Z,99593.56
2022-11-04T03:33:47.997Z,99577.69
2022-11-04T03:36:14.831Z,99591.13
2022-11-04T03:38:41.830Z,99600.81
2022-11-04T03:41:38.529Z,99603.78
2022-11-04T03:44:05.214Z,99586.84
2022-11-04T03:46:31.989Z,99585.50
2022-11-04T03:49:00.323Z,99595.19
2022-11-04T03:51:26.902Z,99600.00
2022-11-04T03:53:54.279Z,99586.03
2022-11-04T03:56:39.141Z,99579.56
2022-11-04T03:59:38.867Z,99572.56
2022-11-04T04:02:28.354Z,99587.63
2022-11-04T04:05:18.661Z,99585.75
2022-11-04T04:07:54.184Z,99582.78
2022-11-04T04:10:40.041Z,99585.19
2022-11-04T04:13:57.713Z,99591.38
2022-11-04T04:16:33.761Z,99592.75
2022-11-04T04:19:06.415Z,99589.81
2022-11-04T04:21:41.416Z,99596.75
2022-11-04T04:24:30.613Z,99601.56
2022-11-04T04:27:21.408Z,99589.16
2022-11-04T04:29:51.284Z,99586.44
2022-11-04T04:32:20.468Z,99581.69
2022-11-04T04:34:47.132Z,99573.09
2022-11-04T04:37:25.415Z,99571.75
2022-11-04T04:40:15.054Z,99570.91
2022-11-04T04:43:00.306Z,99571.97
2022-11-04T04:45:37.441Z,99569.56
2022-11-04T04:48:05.705Z,99574.66
2022-11-04T04:50:37.206Z,99571.75
2022-11-04T04:53:04.158Z,99577.91
2022-11-04T04:55:38.850Z,99573.59
2022-11-04T04:58:09.177Z,99567.91
2022-11-04T05:00:35.946Z,99564.41
2022-11-04T05:03:02.680Z,99573.06
2022-11-04T05:05:29.380Z,99564.44
2022-11-04T05:07:56.119Z,99568.19
2022-11-04T05:10:22.720Z,99557.16
2022-11-04T05:13:15.560Z,99555.50
2022-11-04T05:15:42.423Z,99559.16
2022-11-04T05:18:09.298Z,99556.69
2022-11-04T05:20:38.311Z,99544.56
2022-11-04T05:23:04.923Z,99548.06
2022-11-04T05:25:31.654Z,99553.16
2022-11-04T05:28:02.084Z,99541.63
2022-11-04T05:30:29.159Z,99546.22
2022-11-04T05:32:59.876Z,99538.13
2022-11-04T05:35:30.337Z,99534.63
2022-11-04T05:37:57.105Z,99540.25
2022-11-04T05:40:24.231Z,99532.44
2022-11-04T05:42:51.085Z,99532.16
2022-11-04T05:45:19.356Z,99525.69
2022-11-04T05:47:47.241Z,99522.69
2022-11-04T05:50:13.938Z,99521.56
2022-11-04T05:52:40.613Z,99527.75
2022-11-04T05:55:08.113Z,99528.88
2022-11-04T05:57:35.694Z,99529.91
2022-11-04T06:00:03.800Z,99530.22
2022-11-04T06:02:31.627Z,99542.91
2022-11-04T06:04:58.404Z,99543.66
2022-11-04T06:07:25.053Z,99548.34
2022-11-04T06:09:51.612Z,99547.22
2022-11-04T06:12:18.293Z,99549.31
2022-11-04T06:14:45.051Z,99549.81
2022-11-04T06:17:21.357Z,99539.09
2022-11-04T06:19:49.308Z,99554.63
2022-11-04T06:22:17.840Z,99556.25
2022-11-04T06:24:45.222Z,99566.47
2022-11-04T06:27:12.538Z,99569.16
2022-11-04T06:29:41.065Z,99586.34
2022-11-04T06:32:09.827Z,99575.88
2022-11-04T06:34:36.783Z,99580.41
2022-11-04T06:37:03.976Z,99579.88
2022-11-04T06:39:30.673Z,99578.53
2022-11-04T06:41:59.676Z,99582.84
2022-11-04T06:44:27.967Z,99581.53
2022-11-04T06:46:54.591Z,99580.97
2022-11-04T06:49:23.144Z,99586.09
2022-11-04T06:51:50.421Z,99575.34
2022-11-04T06:54:17.721Z,99576.94
2022-11-04T06:56:45.184Z,99574.25
2022-11-04T06:59:17.013Z,99580.47
2022-11-04T07:01:44.475Z,99570.53
2022-11-04T07:04:11.275Z,99573.53
2022-11-04T07:06:39.803Z,99574.63
2022-11-04T07:09:11.253Z,99574.34
2022-11-04T07:11:38.209Z,99577.84
2022-11-04T07:14:04.931Z,99592.09
2022-11-04T07:16:31.530Z,99588.13
2022-11-04T07:18:58.394Z,99598.38
2022-11-04T07:21:25.444Z,99602.63
2022-11-04T07:23:52.164Z,99605.00
2022-11-04T07:26:18.940Z,99606.63
2022-11-04T07:28:45.963Z,99610.16
2022-11-04T07:31:13.926Z,99609.59
2022-11-04T07:33:40.921Z,99605.09
2022-11-04T07:36:11.629Z,99612.31
2022-11-04T07:38:38.263Z,99624.19
2022-11-04T07:41:05.212Z,99622.75
2022-11-04T07:43:31.926Z,99621.50
2022-11-04T07:46:03.572Z,99613.47
2022-11-04T07:48:30.322Z,99603.97
2022-11-04T07:50:58.843Z,99605.91
2022-11-04T07:53:30.409Z,99600.00
2022-11-04T07:56:03.250Z,99594.16
2022-11-04T07:58:35.461Z,99595.22
2022-11-04T08:01:12.987Z,99601.16
2022-11-04T08:03:41.185Z,99591.75
2022-11-04T08:06:13.148Z,99589.59
2022-11-04T08:08:40.476Z,99593.88
2022-11-04T08:11:17.345Z,99593.63
2022-11-04T08:13:45.223Z,99593.38
2022-11-04T08:16:14.914Z,99582.31
2022-11-04T08:18:42.845Z,99590.09
2022-11-04T08:21:10.097Z,99586.84
2022-11-04T08:23:36.900Z,99578.78
2022-11-04T08:26:11.874Z,99590.09
2022-11-04T08:28:38.899Z,99573.72
2022-11-04T08:31:29.376Z,99572.09
2022-11-04T08:33:57.058Z,99577.19
2022-11-04T08:36:28.004Z,99565.38
2022-11-04T08:38:55.450Z,99572.63
2022-11-04T08:41:26.326Z,99571.25
2022-11-04T08:43:53.152Z,99564.56
2022-11-04T08:46:19.991Z,99564.53
2022-11-04T08:48:46.734Z,99566.16
2022-11-04T08:51:20.329Z,99567.81
2022-11-04T08:53:47.001Z,99569.94
2022-11-04T08:56:19.705Z,99572.34
2022-11-04T08:58:46.521Z,99581.25
2022-11-04T09:01:13.799Z,99583.59
2022-11-04T09:03:42.044Z,99584.16
2022-11-04T09:06:12.318Z,99572.06
2022-11-04T09:08:39.807Z,99580.69
2022-11-04T09:11:08.425Z,99590.94
2022-11-04T09:13:39.648Z,99592.00
2022-11-04T09:16:08.140Z,99590.09
2022-11-04T09:18:35.338Z,99596.88
2022-11-04T09:21:03.324Z,99594.72
2022-11-04T09:25:58.555Z,99599.28
2022-11-04T09:28:25.874Z,99606.81
2022-11-04T09:30:52.577Z,99597.66
2022-11-04T09:33:19.277Z,99594.16
2022-11-04T09:35:56.046Z,99589.31
2022-11-04T09:38:22.852Z,99599.28
2022-11-04T09:40:50.800Z,99601.44
2022-11-04T09:43:51.435Z,99602.25
2022-11-04T09:46:18.922Z,99604.41
2022-11-04T09:48:51.996Z,99620.56
2022-11-04T09:51:47.883Z,99618.94
2022-11-04T09:54:22.783Z,99625.94
2022-11-04T09:56:53.262Z,99630.00
2022-11-04T09:59:27.296Z,99636.72
2022-11-04T10:02:15.286Z,99639.69
2022-11-04T10:05:11.477Z,99652.88
2022-11-04T10:07:49.710Z,99646.94
2022-11-04T10:10:37.181Z,99649.63
2022-11-04T10:13:28.067Z,99641.84
2022-11-04T10:16:06.070Z,99642.09
2022-11-04T10:18:46.062Z,99645.63
2022-11-04T10:21:48.068Z,99642.88
2022-11-04T10:24:23.979Z,99636.69
2022-11-04T10:27:00.650Z,99629.97
2022-11-04T10:29:43.222Z,99623.22
2022-11-04T10:32:47.209Z,99613.03
2022-11-04T10:35:28.830Z,99621.59
2022-11-04T10:37:56.505Z,99623.53
2022-11-04T10:40:38.714Z,99628.06
2022-11-04T10:43:14.029Z,99628.88
2022-11-04T10:45:50.435Z,99617.81
2022-11-04T10:48:27.351Z,99616.41
2022-11-04T10:50:59.289Z,99608.50
2022-11-04T10:53:28.274Z,99605.00
2022-11-04T10:56:01.315Z,99607.38
2022-11-04T10:58:32.780Z,99601.28
2022-11-04T11:01:01.216Z,99594.03
2022-11-04T11:03:36.122Z,99599.44
2022-11-04T11:06:25.568Z,99596.84
2022-11-04T11:08:59.991Z,99593.44
2022-11-04T11:11:45.594Z,99588.41
2022-11-04T11:14:35.783Z,99588.69
2022-11-04T11:17:16.298Z,99594.56
2022-11-04T11:20:08.334Z,99592.66
2022-11-04T11:22:43.398Z,99590.88
2022-11-04T11:25:27.437Z,99597.72
2022-11-04T11:28:10.233Z,99604.13
2022-11-04T11:31:04.442Z,99602.22
2022-11-04T11:34:00.773Z,99594.41
2022-11-04T11:36:40.282Z,99597.66
2022-11-04T11:39:19.218Z,99595.22
2022-11-04T11:42:13.545Z,99599.19
2022-11-04T11:44:53.340Z,99600.78
2022-11-04T11:47:28.298Z,99596.00
2022-11-04T11:50:16.565Z,99589.66
2022-11-04T11:52:46.335Z,99588.63
2022-11-04T11:55:20.727Z,99585.94
2022-11-04T12:01:16.601Z,99586.75
2022-11-04T12:10:18.550Z,99567.41
2022-11-04T12:13:14.481Z,99571.69
2022-11-04T12:16:06.368Z,99567.66
2022-11-04T12:18:45.228Z,99562.81
2022-11-04T12:21:21.241Z,99562.56
2022-11-04T12:23:52.354Z,99563.63
2022-11-04T12:26:56.236Z,99566.13
2022-11-04T12:30:03.370Z,99563.06
2022-11-04T12:32:45.060Z,99567.81
2022-11-04T12:35:20.556Z,99566.50
2022-11-04T12:38:07.878Z,99568.56
2022-11-04T12:40:45.530Z,99576.09
2022-11-04T12:43:33.502Z,99575.84
2022-11-04T12:46:22.645Z,99574.00
2022-11-04T12:48:57.017Z,99579.16
2022-11-04T12:51:38.008Z,99586.41
2022-11-04T12:54:13.376Z,99588.28
2022-11-04T12:56:42.058Z,99578.34
2022-11-04T12:59:50.836Z,99590.19
2022-11-04T13:02:25.973Z,99582.69
2022-11-04T13:04:59.303Z,99585.41
2022-11-04T13:07:40.306Z,99589.63
2022-11-04T13:10:43.439Z,99588.81
2022-11-04T13:13:14.171Z,99599.88
2022-11-04T13:15:51.440Z,99599.94
2022-11-04T13:18:25.274Z,99607.06
2022-11-04T13:21:02.922Z,99600.13
2022-11-04T13:23:52.205Z,99607.38
2022-11-04T13:26:18.994Z,99605.28
2022-11-04T13:28:56.072Z,99610.31
2022-11-04T13:31:27.227Z,99614.63
2022-11-04T13:34:06.027Z,99616.78
2022-11-04T13:36:57.678Z,99621.81
2022-11-04T13:39:46.323Z,99622.13
2022-11-04T13:42:34.884Z,99620.88
2022-11-04T13:45:17.157Z,99629.00
2022-11-04T13:47:53.955Z,99629.81
2022-11-04T13:50:33.163Z,99632.53
2022-11-04T13:53:00.135Z,99630.06
2022-11-04T13:55:28.470Z,99632.78
2022-11-04T13:58:03.666Z,99631.69
2022-11-04T14:00:33.417Z,99634.38
2022-11-04T14:03:23.034Z,99627.13
2022-11-04T14:06:03.863Z,99639.78
2022-11-04T14:08:34.148Z,99641.94
2022-11-04T14:11:08.659Z,99648.38
2022-11-04T14:13:42.799Z,99646.78
2022-11-04T14:16:13.811Z,99648.84
2022-11-04T14:18:48.674Z,99655.25
2022-11-04T14:21:19.506Z,99653.09
2022-11-04T14:23:48.852Z,99653.41
2022-11-04T14:26:21.643Z,99660.69
2022-11-04T14:29:00.464Z,99676.00
2022-11-04T14:31:37.886Z,99663.44
2022-11-04T14:34:06.228Z,99669.66
2022-11-04T14:36:40.044Z,99664.84
2022-11-04T14:39:13.740Z,99671.63
2022-11-04T14:41:40.329Z,99672.16
2022-11-04T14:44:13.114Z,99673.97
2022-11-04T14:46:43.999Z,99676.69
2022-11-04T14:49:35.963Z,99685.34
2022-11-04T14:52:02.806Z,99685.66
2022-11-04T14:54:32.427Z,99693.50
2022-11-04T14:57:23.101Z,99693.50
2022-11-04T14:59:54.069Z,99700.53
2022-11-04T15:02:27.318Z,99705.13
2022-11-04T15:05:00.903Z,99703.81
2022-11-04T15:07:31.276Z,99704.31
2022-11-04T15:10:00.131Z,99709.72
2022-11-04T15:12:49.711Z,99721.84
2022-11-04T15:15:25.987Z,99724.25
2022-11-04T15:17:58.865Z,99727.25
2022-11-04T15:20:29.520Z,99726.69
2022-11-04T15:22:58.896Z,99729.94
2022-11-04T15:25:26.155Z,99729.41
2022-11-04T15:27:54.008Z,99729.66
2022-11-04T15:30:24.409Z,99726.13
2022-11-04T15:32:56.402Z,99728.28
2022-11-04T15:35:24.315Z,99726.41
2022-11-04T15:37:54.114Z,99730.97
2022-11-04T15:40:22.087Z,99726.41
2022-11-04T15:42:50.287Z,99728.28
2022-11-04T15:45:39.109Z,99730.44
2022-11-04T15:48:40.230Z,99730.97
2022-11-04T15:51:20.477Z,99739.59
2022-11-04T15:53:59.882Z,99745.56
2022-11-04T15:56:33.788Z,99742.31
2022-11-04T15:59:08.934Z,99743.38
2022-11-04T16:01:44.959Z,99747.66
2022-11-04T16:04:14.671Z,99754.16
2022-11-04T16:07:03.004Z,99757.16
2022-11-04T16:09:29.992Z,99752.53
2022-11-04T16:12:29.077Z,99753.59
2022-11-04T16:14:58.084Z,99767.31
2022-11-04T16:17:28.049Z,99763.59
2022-11-04T16:20:19.394Z,99772.19
2022-11-04T16:22:46.954Z,99776.81
2022-11-04T16:25:23.397Z,99774.66
2022-11-04T16:27:50.813Z,99775.47
2022-11-04T16:30:20.413Z,99767.91
2022-11-04T16:32:56.762Z,99780.31
2022-11-04T16:35:27.934Z,99781.63
2022-11-04T16:37:55.964Z,99787.00
2022-11-04T16:40:24.642Z,99784.03
2022-11-04T16:42:52.590Z,99780.50
2022-11-04T16:45:30.007Z,99792.94
2022-11-04T16:47:57.243Z,99796.50
2022-11-04T16:50:24.573Z,99798.09
2022-11-04T16:52:51.515Z,99807.25
2022-11-04T16:55:19.976Z,99805.91
2022-11-04T16:57:48.898Z,99807.78
2022-11-04T17:00:26.014Z,99807.72
2022-11-04T17:02:53.127Z,99808.28
2022-11-04T17:05:20.141Z,99812.88
2022-11-04T17:07:53.741Z,99808.06
2022-11-04T17:10:26.078Z,99810.13
2022-11-04T17:12:53.543Z,99813.91
2022-11-04T17:15:21.253Z,99817.66
2022-11-04T17:17:48.813Z,99825.16
2022-11-04T17:20:20.457Z,99819.88
2022-11-04T17:22:54.593Z,99826.13
2022-11-04T17:25:27.240Z,99829.59
2022-11-04T17:27:55.949Z,99834.09
2022-11-04T17:30:23.859Z,99848.31
2022-11-04T17:32:54.085Z,99849.13
2022-11-04T17:35:21.023Z,99843.44
2022-11-04T17:37:55.808Z,99849.09
2022-11-04T17:40:24.093Z,99850.44
2022-11-04T17:43:12.188Z,99848.28
2022-11-04T17:45:43.836Z,99867.72
2022-11-04T17:48:14.187Z,99871.22
2022-11-04T17:50:45.758Z,99876.97
2022-11-04T17:53:15.824Z,99880.53
2022-11-04T17:55:43.032Z,99880.22
2022-11-04T17:58:12.254Z,99890.34
2022-11-04T18:00:42.270Z,99892.06
2022-11-04T18:03:14.905Z,99893.88
2022-11-04T18:05:46.753Z,99893.28
2022-11-04T18:08:13.407Z,99895.91
2022-11-04T18:10:40.037Z,99894.19
2022-11-04T18:13:07.468Z,99906.00
2022-11-04T18:15:34.867Z,99895.66
2022-11-04T18:18:01.745Z,99895.19
2022-11-04T18:20:28.549Z,99898.84
2022-11-04T18:22:55.338Z,99905.25
2022-11-04T18:25:21.985Z,99898.66
2022-11-04T18:27:49.107Z,99906.06
2022-11-04T18:30:16.228Z,99905.31
2022-11-04T18:32:42.966Z,99908.00
2022-11-04T18:35:09.730Z,99904.34
2022-11-04T18:37:36.433Z,99901.38
2022-11-04T18:40:03.219Z,99914.09
2022-11-04T18:42:30.433Z,99921.28
2022-11-04T18:44:57.373Z,99926.63
2022-11-04T18:47:24.317Z,99929.31
2022-11-04T18:49:51.103Z,99926.66
2022-11-04T18:52:17.766Z,99936.53
2022-11-04T18:54:45.436Z,99946.78
2022-11-04T18:57:12.967Z,99946.75
2022-11-04T18:59:42.918Z,99951.38
2022-11-04T19:02:23.979Z,99958.44
2022-11-04T19:04:52.406Z,99957.66
2022-11-04T19:07:22.102Z,99960.84
2022-11-04T19:09:48.973Z,99955.34
2022-11-04T19:12:36.796Z,99963.44
2022-11-04T19:15:04.722Z,99959.78
2022-11-04T19:17:31.776Z,99964.91
2022-11-04T19:19:58.850Z,99970.09
2022-11-04T19:22:25.632Z,99973.88
2022-11-04T19:24:53.226Z,99972.97
2022-11-04T19:27:25.147Z,99971.75
2022-11-04T19:29:53.662Z,99977.34
2022-11-04T19:32:23.869Z,99983.63
2022-11-04T19:34:53.399Z,99984.84
2022-11-04T19:37:24.942Z,99987.97
2022-11-04T19:39:56.971Z,99991.22
2022-11-04T19:42:45.065Z,99988.63
2022-11-04T19:45:15.162Z,99995.63
2022-11-04T19:47:43.555Z,100007.88
2022-11-04T19:50:14.060Z,99999.25
2022-11-04T19:52:42.946Z,100004.16
2022-11-04T19:55:13.162Z,100012.06
2022-11-04T19:57:40.539Z,100016.00
2022-11-04T20:00:12.213Z,100020.69
2022-11-04T20:02:44.272Z,100029.53
2022-11-04T20:05:15.128Z,100024.34
2022-11-04T20:07:42.752Z,100023.94
2022-11-04T20:10:10.461Z,100018.78
2022-11-04T20:12:55.817Z,100045.06
2022-11-04T20:15:23.384Z,100040.03
2022-11-04T20:17:50.722Z,100045.44
2022-11-04T20:20:17.599Z,100048.19
2022-11-04T20:22:44.907Z,100047.75
2022-11-04T20:25:12.432Z,100055.25
2022-11-04T20:27:39.687Z,100063.25
2022-11-04T20:30:18.422Z,100057.16
2022-11-04T20:32:46.263Z,100069.59
2022-11-04T20:35:13.547Z,100061.84
2022-11-04T20:37:41.765Z,100064.78
2022-11-04T20:40:10.009Z,100074.22
2022-11-04T20:42:37.180Z,100083.88
2022-11-04T20:45:04.353Z,100078.50
2022-11-04T20:47:36.594Z,100090.81
2022-11-04T20:50:06.254Z,100091.69
2022-11-04T20:52:37.208Z,100089.47
2022-11-04T20:55:09.677Z,100096.72
2022-11-04T20:57:36.765Z,100100.94
2022-11-04T21:00:04.338Z,100092.00
2022-11-04T21:02:32.206Z,100097.63
2022-11-04T21:05:06.473Z,100099.81
2022-11-04T21:07:36.422Z,100117.19
2022-11-04T21:10:07.004Z,100111.66
2022-11-04T21:12:34.776Z,100104.31
2022-11-04T21:15:01.643Z,100123.19
2022-11-04T21:17:37.462Z,100123.09
2022-11-04T21:20:07.292Z,100133.72
2022-11-04T21:22:33.969Z,100128.03
2022-11-04T21:25:01.000Z,100131.28
2022-11-04T21:27:31.229Z,100131.81
2022-11-04T21:29:59.001Z,100141.53
2022-11-04T21:32:32.785Z,100133.69
2022-11-04T21:35:00.504Z,100145.69
2022-11-04T21:37:27.530Z,100144.06
2022-11-04T21:39:55.153Z,100143.25
2022-11-04T21:42:21.926Z,100141.78
2022-11-04T21:44:48.672Z,100142.38
2022-11-04T21:47:15.481Z,100144.44
2022-11-04T21:49:42.485Z,100148.22
2022-11-04T21:52:09.422Z,100162.00
2022-11-04T21:54:36.303Z,100160.38
2022-11-04T21:57:03.891Z,100162.09
2022-11-04T21:59:32.526Z,100165.06
2022-11-04T22:02:01.593Z,100172.31
2022-11-04T22:04:29.476Z,100168.66
2022-11-04T22:06:57.345Z,100166.56
2022-11-04T22:09:25.519Z,100175.59
2022-11-04T22:11:55.137Z,100165.81
2022-11-04T22:14:28.603Z,100181.16
2022-11-04T22:16:55.961Z,100174.31
2022-11-04T22:19:22.770Z,100175.44
2022-11-04T22:21:50.071Z,100184.56
2022-11-04T22:24:21.843Z,100180.38
2022-11-04T22:26:50.109Z,100180.25
2022-11-04T22:29:19.661Z,100187.38
2022-11-04T22:31:48.779Z,100183.59
2022-11-04T22:34:18.753Z,100180.28
2022-11-04T22:36:47.398Z,100184.78
2022-11-04T22:39:17.092Z,100187.25
2022-11-04T22:41:49.894Z,100182.78
2022-11-04T22:44:16.924Z,100189.66
2022-11-04T22:46:44.832Z,100193.97
2022-11-04T22:49:11.678Z,100191.25
2022-11-04T22:51:42.595Z,100188.25
2022-11-04T22:54:13.218Z,100195.94
2022-11-04T22:56:43.160Z,100199.38
2022-11-04T22:59:12.977Z,100193.50
2022-11-04T23:01:40.230Z,100204.97
2022-11-04T23:04:12.277Z,100204.66
2022-11-04T23:06:43.500Z,100211.31
2022-11-04T23:09:20.401Z,100204.66
2022-11-04T23:12:08.238Z,100207.00
2022-11-04T23:14:40.464Z,100208.31
2022-11-04T23:17:35.619Z,100215.28
2022-11-04T23:20:04.413Z,100205.59
2022-11-04T23:22:50.860Z,100205.09
2022-11-04T23:25:20.108Z,100215.16
2022-11-04T23:28:08.280Z,100223.59
2022-11-04T23:30:39.393Z,100223.22
2022-11-04T23:33:09.219Z,100223.94
2022-11-04T23:36:01.832Z,100225.50
2022-11-04T23:38:32.092Z,100230.81
2022-11-04T23:41:23.641Z,100229.69
2022-11-04T23:43:50.348Z,100228.88
2022-11-04T23:46:42.240Z,100227.88
2022-11-04T23:49:32.257Z,100229.13
2022-11-04T23:52:18.089Z,100236.31
2022-11-04T23:55:03.111Z,100239.28
2022-11-04T23:57:48.449Z,100245.22
